Latest Coastal Weather Observations for Tasman Island

IDT60701

Issued at 4:12 pm EST Tuesday 16 August 2022 (issued every 10 minutes, with the page automatically refreshed every 10 minutes)

About coastal observations | Map of coastal stations | Coastal observations for TAS | Marine services | Other Formats
Station Details ID: 094155 Name: TASMAN ISLAND Lat: -43.24 Lon: 148.00 Height: 240.0 m
Data from the previous 72 hours. | See also: Recent months at Tasman Island
Date/Time
EST
Wind Sea
Height
m
Swell Vis
km
Cloud Weather Temp
°C
Press
MSL
hPa
Rain since
9am
mm
Dir  Spd
kts
Gust
kts
Height
m
Period
s
Dir
16/04:00pm SSW 24 34 - - - - - - - 9.3 1008.2 0.0
16/03:30pm SSW 27 37 - - - - - - - 9.4 1007.8 0.0
16/03:00pm SSW 29 41 - - - - - - - 9.3 1007.2 0.0
16/02:30pm SSW 25 37 - - - - - - - 9.7 1006.9 0.0
16/02:15pm SSW 24 41 - - - - - - - 9.4 1006.6 0.0
16/02:00pm SSW 19 37 - - - - - - - 9.7 1006.5 0.0
16/01:30pm SW 16 35 - - - - - - - 9.7 1005.9 0.0
16/01:00pm SSW 16 30 - - - - - - - 9.9 1005.7 0.0
16/12:30pm SSW 15 26 - - - - - - - 9.9 1005.4 0.0
16/12:00pm SSW 21 32 - - - - - - - 9.7 1005.1 0.0
16/11:44am SSW 15 29 - - - - - - - 9.7 1005.1 0.0
16/11:30am SW 12 24 - - - - - - - 9.8 1005.1 0.0
16/11:00am SSW 18 30 - - - - - - - 10.1 1005.1 0.0
16/10:30am SSW 19 30 - - - - - - - 9.9 1004.7 0.0
16/10:26am SSW 15 30 - - - - - - - 10.0 1004.7 0.0
16/10:00am SSW 12 22 - - - - - - - 9.8 1004.5 0.0
16/09:49am SSW 18 31 - - - - - - - 9.8 1004.3 0.0
16/09:30am SW 9 20 - - - - - - - 10.2 1004.1 0.0
16/09:01am SSW 16 27 - - - - - - - 9.9 1003.8 0.0
16/09:00am SSW 17 27 - - - - - - - 9.9 1003.8 0.0
16/08:52am SSW 15 27 - - - - - - - 10.1 1003.7 0.0
16/08:30am SSW 14 23 - - - - - - - 10.1 1003.5 0.0
16/08:19am SSW 15 27 - - - - - - - 10.1 1003.3 0.0
16/08:00am SSW 10 19 - - - - - - - 10.3 1003.0 0.0
16/07:49am SSW 15 25 - - - - - - - 10.1 1002.6 0.0
16/07:30am SSW 14 23 - - - - - - - 9.9 1002.3 0.0
16/07:00am SSW 17 25 - - - - - - - 9.8 1001.7 0.0
16/06:34am SSW 15 26 - - - - - - - 9.8 1001.2 0.0
16/06:30am SSW 14 22 - - - - - - - 9.8 1001.2 0.0
16/06:06am SSW 15 26 - - - - - - - 9.6 1000.7 0.0
16/06:00am SSW 13 22 - - - - - - - 9.6 1000.6 0.0
16/05:30am SSW 14 24 - - - - - - - 9.5 1000.2 0.0
16/05:00am SSW 14 20 - - - - - - - 9.2 999.9 0.0
16/04:30am SSW 14 22 - - - - - - - 9.3 999.5 0.0
16/04:00am SSW 10 18 - - - - - - - 9.2 999.0 0.0
16/03:30am SSW 12 21 - - - - - - - 9.1 998.5 0.0
16/03:00am SW 7 23 - - - - - - - 9.1 998.2 0.0
16/02:30am SW 7 16 - - - - - - - 9.0 998.1 0.0
16/02:00am SW 8 16 - - - - - - - 9.2 998.1 0.0
16/01:30am SW 7 17 - - - - - - - 9.2 998.1 0.0
16/01:00am S 4 11 - - - - - - - 9.3 997.9 0.0
16/12:30am SW 6 15 - - - - - - - 9.2 998.0 0.0
16/12:00am SW 6 13 - - - - - - - 9.0 997.8 0.0
 
Date/Time
EST
Wind Sea
Height
m
Swell Vis
km
Cloud Weather Temp
°C
Press
MSL
hPa
Rain since
9am
mm
Dir  Spd
kts
Gust
kts
Height
m
Period
s
Dir
15/11:30pm SW 8 15 - - - - - - - 9.0 997.7 0.0
15/11:00pm SSW 10 14 - - - - - - - 9.1 997.4 0.0
15/10:30pm SSW 9 13 - - - - - - - 8.8 997.6 0.0
15/10:00pm SSW 6 9 - - - - - - - 8.8 997.6 0.0
15/09:30pm SW 4 11 - - - - - - - 9.4 997.6 0.0
15/09:00pm WSW 4 6 - - - - - - - 9.0 997.6 0.0
15/08:30pm WSW 5 7 - - - - - - - 8.9 997.5 0.0
15/08:00pm SW 4 7 - - - - - - - 8.8 997.3 0.0
15/07:30pm SW 2 5 - - - - - - - 8.3 997.3 0.0
15/07:00pm SSE 2 4 - - - - - - - 8.1 997.3 0.0
15/06:30pm SSE 3 3 - - - - - - - 8.6 997.1 0.0
15/06:00pm SSE 4 5 - - - - - - - 8.9 996.9 0.0
15/05:30pm ESE 2 3 - - - - - - - 9.2 996.8 0.0
15/05:00pm NE 3 5 - - - - - - - 9.1 996.5 0.0
15/04:30pm NE 4 6 - - - - - - - 9.0 996.5 0.0
15/04:00pm E 3 7 - - - - - - - 9.3 996.6 0.0
15/03:30pm ENE 5 10 - - - - - - - 9.6 996.6 0.0
15/03:00pm E 3 8 - - - - - - - 9.7 996.5 0.0
15/02:30pm E 2 6 - - - - - - - 10.1 996.5 0.0
15/02:00pm ENE 8 12 - - - - - - - 9.4 996.6 0.0
15/01:30pm NNW 3 9 - - - - - - - 10.0 996.6 0.0
15/01:00pm SSE 3 9 - - - - - - - 11.3 996.9 0.0
15/12:30pm ESE 7 17 - - - - - - - 11.6 997.4 0.0
15/12:00pm E 7 16 - - - - - - - 10.9 997.9 0.0
15/11:30am E 7 17 - - - - - - - 10.9 998.3 0.0
15/11:00am ENE 10 16 - - - - - - - 10.5 998.7 0.0
15/10:30am E 9 21 - - - - - - - 10.9 998.8 0.0
15/10:00am E 10 23 - - - - - - - 11.1 998.9 0.0
15/09:30am E 10 27 - - - - - - - 11.4 999.0 0.0
15/09:00am E 10 23 - - - - - - - 11.0 999.4 0.0
15/08:30am E 9 24 - - - - - - - 11.0 999.5 0.0
15/08:00am E 10 26 - - - - - - - 10.7 999.7 0.0
15/07:30am E 10 24 - - - - - - - 10.7 999.6 0.0
15/07:00am E 11 23 - - - - - - - 10.6 999.9 0.0
15/06:30am E 10 24 - - - - - - - 10.4 999.9 0.0
15/06:00am E 11 25 - - - - - - - 10.7 999.7 0.0
15/05:30am ENE 10 19 - - - - - - - 10.6 1000.3 0.0
15/05:00am ENE 9 18 - - - - - - - 10.4 1000.5 0.0
15/04:30am ENE 10 24 - - - - - - - 10.3 1000.5 0.0
15/04:00am ENE 10 24 - - - - - - - 10.6 1000.2 0.0
15/03:30am E 13 25 - - - - - - - 10.8 1000.6 0.0
15/03:00am NE 8 23 - - - - - - - 10.9 1000.7 0.0
15/02:30am NE 7 27 - - - - - - - 11.0 1001.2 0.0
15/02:00am ENE 10 30 - - - - - - - 10.8 1001.5 0.0
15/01:30am NE 10 29 - - - - - - - 10.9 1001.6 0.0
15/01:00am ENE 9 26 - - - - - - - 10.9 1001.5 0.0
15/12:30am ENE 12 30 - - - - - - - 11.0 1001.7 0.0
15/12:17am NNE 11 34 - - - - - - - 11.0 1001.9 0.0
15/12:00am NE 9 32 - - - - - - - 11.0 1001.8 0.0
 
Date/Time
EST
Wind Sea
Height
m
Swell Vis
km
Cloud Weather Temp
°C
Press
MSL
hPa
Rain since
9am
mm
Dir  Spd
kts
Gust
kts
Height
m
Period
s
Dir
14/11:43pm ENE 12 34 - - - - - - - 11.0 1001.9 0.0
14/11:33pm NE 13 37 - - - - - - - 11.0 1002.0 0.0
14/11:30pm ENE 15 37 - - - - - - - 11.1 1001.9 0.0
14/11:00pm ENE 14 35 - - - - - - - 11.1 1001.7 0.0
14/10:56pm NE 12 35 - - - - - - - 11.1 1001.8 0.0
14/10:49pm ENE 12 31 - - - - - - - 11.1 1001.4 0.0
14/10:33pm NE 14 39 - - - - - - - 11.1 1002.0 0.0
14/10:31pm NE 13 39 - - - - - - - 11.1 1001.9 0.0
14/10:30pm NE 11 36 - - - - - - - 11.1 1001.8 0.0
14/10:13pm NE 13 38 - - - - - - - 11.2 1001.8 0.0
14/10:07pm ENE 17 38 - - - - - - - 11.3 1001.8 0.0
14/10:00pm ENE 16 36 - - - - - - - 11.3 1001.8 0.0
14/09:30pm ENE 16 37 - - - - - - - 11.3 1001.9 0.0
14/09:02pm ENE 21 41 - - - - - - - 11.3 1001.9 0.0
14/09:00pm ENE 23 41 - - - - - - - 11.3 1001.9 0.0
14/08:35pm ENE 13 37 - - - - - - - 10.8 1001.8 0.0
14/08:30pm ENE 12 34 - - - - - - - 10.6 1001.6 0.0
14/08:23pm ENE 17 37 - - - - - - - 10.8 1001.8 0.0
14/08:21pm ENE 17 37 - - - - - - - 11.3 1001.7 0.0
14/08:00pm E 23 33 - - - - - - - 11.0 1001.9 0.0
14/07:30pm ENE 22 34 - - - - - - - 11.3 1001.9 0.0
14/07:00pm ENE 17 36 - - - - - - - 11.3 1001.8 0.0
14/06:30pm ENE 15 30 - - - - - - - 11.3 1001.6 0.0
14/06:00pm ENE 15 30 - - - - - - - 11.3 1001.5 0.0
14/05:30pm E 15 29 - - - - - - - 11.3 1001.1 0.0
14/05:00pm E 17 35 - - - - - - - 11.3 1000.8 0.0
14/04:30pm E 15 32 - - - - - - - 11.2 1000.6 0.0
14/04:00pm E 15 34 - - - - - - - 11.2 1000.7 0.0
14/03:46pm ESE 13 38 - - - - - - - 11.4 1000.6 0.0
14/03:30pm ESE 13 31 - - - - - - - 11.4 1001.0 0.0
14/03:00pm E 15 28 - - - - - - - 11.5 1001.1 0.0
14/02:30pm E 15 28 - - - - - - - 11.6 1001.3 0.0
14/02:00pm E 15 29 - - - - - - - 11.5 1001.5 0.0
14/01:40pm E 15 30 - - - - - - - 11.6 1001.5 0.0
14/01:30pm E 13 28 - - - - - - - 11.5 1001.6 0.0
14/01:00pm E 17 31 - - - - - - - 11.7 1001.9 0.0
14/12:30pm E 16 31 - - - - - - - 11.7 1002.3 0.0
14/12:00pm E 17 37 - - - - - - - 11.5 1002.4 0.0
14/11:30am E 17 33 - - - - - - - 11.5 1002.4 0.0
14/11:00am E 15 29 - - - - - - - 11.5 1002.5 0.0
14/10:30am E 16 33 - - - - - - - 11.3 1002.3 0.0
14/10:03am E 15 36 - - - - - - - 11.0 1002.1 0.0
14/10:00am ESE 12 36 - - - - - - - 10.8 1002.0 0.0
14/09:30am SSE 15 32 - - - - - - - 10.8 1001.7 0.0
14/09:00am SSE 18 34 - - - - - - - 10.8 1001.0 0.0
14/08:30am SSE 16 32 - - - - - - - 10.6 1002.0 0.0
14/08:00am SSE 20 36 - - - - - - - 10.5 1002.5 0.0
14/07:30am SSE 19 32 - - - - - - - 10.3 1002.6 0.0
14/07:00am SSE 16 31 - - - - - - - 10.2 1003.2 0.0
14/06:30am SSE 19 39 - - - - - - - 10.1 1003.5 0.0
14/06:00am SSE 20 39 - - - - - - - 10.0 1004.0 0.0
14/05:30am SSE 17 32 - - - - - - - 10.0 1004.6 0.0
14/05:00am SSE 17 30 - - - - - - - 9.9 1005.3 0.0
14/04:30am SSE 15 29 - - - - - - - 9.9 1005.8 0.0
14/04:00am SSE 22 37 - - - - - - - 9.8 1006.3 0.0
14/03:30am SSE 17 29 - - - - - - - 9.8 1007.0 0.0
14/03:00am SSE 17 32 - - - - - - - 9.8 1007.9 0.0
14/02:35am SSE 15 30 - - - - - - - 9.8 1008.6 0.0
14/02:30am SSE 13 33 - - - - - - - 9.9 1008.7 0.0
14/02:00am SSE 12 26 - - - - - - - 10.0 1009.3 0.0
14/01:30am SSE 13 25 - - - - - - - 10.0 1009.6 0.0
14/01:00am SSE 13 30 - - - - - - - 9.9 1010.2 0.0
14/12:30am S 11 30 - - - - - - - 9.9 1010.9 0.0
14/12:00am SSE 12 26 - - - - - - - 10.1 1011.7 0.0
 
Date/Time
EST
Wind Sea
Height
m
Swell Vis
km
Cloud Weather Temp
°C
Press
MSL
hPa
Rain since
9am
mm
Dir  Spd
kts
Gust
kts
Height
m
Period
s
Dir
13/11:30pm SSE 10 26 - - - - - - - 10.0 1011.8 0.0
13/11:00pm SSE 9 25 - - - - - - - 10.2 1012.3 0.0
13/10:30pm SE 10 28 - - - - - - - 10.3 1013.1 0.0
13/10:00pm SE 9 28 - - - - - - - 10.5 1013.9 0.0
13/09:30pm SSE 7 22 - - - - - - - 10.7 1014.5 0.0
13/09:00pm ESE 10 32 - - - - - - - 10.7 1014.5 0.0
13/08:30pm ESE 10 27 - - - - - - - 10.7 1014.8 0.0
13/08:00pm ESE 12 23 - - - - - - - 10.9 1015.1 0.0
13/07:30pm SE 7 19 - - - - - - - 11.0 1015.5 0.0
13/07:00pm ESE 8 19 - - - - - - - 10.9 1015.4 0.0
13/06:30pm E 12 21 - - - - - - - 11.0 1015.3 0.0
13/06:00pm ESE 6 11 - - - - - - - 10.9 1015.7 0.0
13/05:30pm E 5 11 - - - - - - - 10.8 1015.8 0.0
13/05:00pm ENE 6 12 - - - - - - - 10.7 1016.1 0.0
13/04:30pm ENE 5 11 - - - - - - - 10.7 1016.0 0.0

Other formats

Comma delimited format used in spreadsheet applications
http://www.bom.gov.au/fwo/IDT60701/IDT60701.95986.axf

JavaScript Object Notation format (JSON) in row-major order
http://www.bom.gov.au/fwo/IDT60701/IDT60701.95986.json

Data quality

Most of these data are generated automatically and are frequently updated. Quality checks on data are not normally performed. It is possible for incorrect values to appear. Refer to information at About Latest Weather Observations and please check the disclaimer before using these data.